createdAt,value
2019-02-10T00:01:48.571Z,3.37
2019-02-10T00:04:17.615Z,3.90
2019-02-10T00:06:46.229Z,2.83
2019-02-10T00:09:14.983Z,2.97
2019-02-10T00:11:43.691Z,3.40
2019-02-10T00:14:12.383Z,3.40
2019-02-10T00:16:41.052Z,3.70
2019-02-10T00:19:09.812Z,3.50
2019-02-10T00:21:38.711Z,2.80
2019-02-10T00:24:07.572Z,3.37
2019-02-10T00:26:36.380Z,2.97
2019-02-10T00:29:05.160Z,3.00
2019-02-10T00:31:33.785Z,2.70
2019-02-10T00:34:02.431Z,2.83
2019-02-10T00:36:33.299Z,2.90
2019-02-10T00:39:01.891Z,3.27
2019-02-10T00:41:30.566Z,2.87
2019-02-10T00:43:59.283Z,2.87
2019-02-10T00:46:27.976Z,4.00
2019-02-10T00:48:56.723Z,4.00
2019-02-10T00:51:25.411Z,3.10
2019-02-10T00:53:54.114Z,2.80
2019-02-10T00:56:22.888Z,3.40
2019-02-10T00:58:51.548Z,2.90
2019-02-10T01:01:20.577Z,3.33
2019-02-10T01:03:49.924Z,3.10
2019-02-10T01:06:18.567Z,3.63
2019-02-10T01:08:47.288Z,2.67
2019-02-10T01:11:18.509Z,3.30
2019-02-10T01:13:47.183Z,2.80
2019-02-10T01:16:15.882Z,3.03
2019-02-10T01:19:07.088Z,2.87
2019-02-10T01:21:35.859Z,3.30
2019-02-10T01:24:04.671Z,2.90
2019-02-10T01:26:33.587Z,3.57
2019-02-10T01:29:02.217Z,2.63
2019-02-10T01:31:30.871Z,3.17
2019-02-10T01:33:59.599Z,2.90
2019-02-10T01:36:28.266Z,2.83
2019-02-10T01:38:56.879Z,3.37
2019-02-10T01:41:25.798Z,3.10
2019-02-10T01:43:54.459Z,3.23
2019-02-10T01:46:23.492Z,3.10
2019-02-10T01:48:52.229Z,3.20
2019-02-10T01:51:21.170Z,3.07
2019-02-10T01:53:49.943Z,2.90
2019-02-10T01:56:18.686Z,3.20
2019-02-10T01:58:47.539Z,3.23
2019-02-10T02:01:16.357Z,3.00
2019-02-10T02:03:44.988Z,2.83
2019-02-10T02:06:13.795Z,2.80
2019-02-10T02:08:43.349Z,2.60
2019-02-10T02:11:12.150Z,2.63
2019-02-10T02:13:40.828Z,2.73
2019-02-10T02:16:09.469Z,2.97
2019-02-10T02:18:38.091Z,3.30
2019-02-10T02:21:07.959Z,2.67
2019-02-10T02:23:37.004Z,3.20
2019-02-10T02:26:05.644Z,3.13
2019-02-10T02:28:34.430Z,2.70
2019-02-10T02:31:03.149Z,3.23
2019-02-10T02:33:31.870Z,2.70
2019-02-10T02:36:00.875Z,2.80
2019-02-10T02:38:29.560Z,2.90
2019-02-10T02:40:58.220Z,3.33
2019-02-10T02:43:26.834Z,3.50
2019-02-10T02:45:55.472Z,2.83
2019-02-10T02:48:24.107Z,3.33
2019-02-10T02:50:52.757Z,3.27
2019-02-10T02:53:21.407Z,2.33
2019-02-10T02:55:50.033Z,4.03
2019-02-10T02:58:18.652Z,3.77
2019-02-10T03:00:47.368Z,3.07
2019-02-10T03:03:15.976Z,2.80
2019-02-10T03:05:44.618Z,3.33
2019-02-10T03:08:13.244Z,2.87
2019-02-10T03:10:41.922Z,3.20
2019-02-10T03:13:10.869Z,2.60
2019-02-10T03:15:39.506Z,3.30
2019-02-10T03:18:08.137Z,2.97
2019-02-10T03:20:36.756Z,2.80
2019-02-10T03:23:05.351Z,2.40
2019-02-10T03:25:33.970Z,2.80
2019-02-10T03:28:02.584Z,2.60
2019-02-10T03:30:31.217Z,2.80
2019-02-10T03:32:59.828Z,2.83
2019-02-10T03:35:28.465Z,2.57
2019-02-10T03:37:57.107Z,2.23
2019-02-10T03:40:25.711Z,3.53
2019-02-10T03:42:54.333Z,2.70
2019-02-10T03:45:23.023Z,3.17
2019-02-10T03:47:51.628Z,2.37
2019-02-10T03:50:20.287Z,2.80
2019-02-10T03:52:48.905Z,2.73
2019-02-10T03:55:17.504Z,2.70
2019-02-10T03:57:46.240Z,2.23
2019-02-10T04:00:14.921Z,2.57
2019-02-10T04:02:55.683Z,2.80
2019-02-10T04:05:24.311Z,2.70
2019-02-10T04:07:53.009Z,2.70
2019-02-10T04:10:21.612Z,2.47
2019-02-10T04:12:50.241Z,2.70
2019-02-10T04:15:18.844Z,3.20
2019-02-10T04:17:47.643Z,3.30
2019-02-10T04:20:16.522Z,2.70
2019-02-10T04:22:45.219Z,2.33
2019-02-10T04:25:13.836Z,2.40
2019-02-10T04:27:42.463Z,3.20
2019-02-10T04:30:11.083Z,3.13
2019-02-10T04:32:40.201Z,2.67
2019-02-10T04:35:08.890Z,2.77
2019-02-10T04:37:45.369Z,3.33
2019-02-10T04:40:08.266Z,2.90
2019-02-10T04:42:36.882Z,2.70
2019-02-10T04:45:05.627Z,3.20
2019-02-10T04:47:34.270Z,3.43
2019-02-10T04:50:02.994Z,4.00
2019-02-10T04:52:31.633Z,3.10
2019-02-10T04:55:00.334Z,2.47
2019-02-10T04:57:29.132Z,3.20
2019-02-10T04:59:57.743Z,3.10
2019-02-10T05:02:26.730Z,3.10
2019-02-10T05:04:55.347Z,2.53
2019-02-10T05:07:24.286Z,2.80
2019-02-10T05:09:52.903Z,3.00
2019-02-10T05:12:21.511Z,3.27
2019-02-10T05:14:50.114Z,2.97
2019-02-10T05:17:18.729Z,2.83
2019-02-10T05:19:47.351Z,3.40
2019-02-10T05:22:15.968Z,3.27
2019-02-10T05:24:44.602Z,3.50
2019-02-10T05:27:13.668Z,3.03
2019-02-10T05:29:42.368Z,3.40
2019-02-10T05:32:11.105Z,3.73
2019-02-10T05:34:39.722Z,3.70
2019-02-10T05:37:08.639Z,3.10
2019-02-10T05:39:37.277Z,3.77
2019-02-10T05:42:05.879Z,2.80
2019-02-10T05:44:34.798Z,3.73
2019-02-10T05:47:03.443Z,4.17
2019-02-10T05:49:32.060Z,3.60
2019-02-10T05:52:01.006Z,4.07
2019-02-10T05:54:29.906Z,4.20
2019-02-10T05:56:58.551Z,3.93
2019-02-10T05:59:27.413Z,3.67
2019-02-10T06:02:06.112Z,4.00
2019-02-10T06:04:40.578Z,4.57
2019-02-10T06:07:12.359Z,4.30
2019-02-10T06:09:40.968Z,3.70
2019-02-10T06:12:09.586Z,4.07
2019-02-10T06:14:38.201Z,4.67
2019-02-10T06:17:06.841Z,3.67
2019-02-10T06:19:35.452Z,3.97
2019-02-10T06:22:04.075Z,3.73
2019-02-10T06:24:32.688Z,5.90
2019-02-10T06:27:01.594Z,3.63
2019-02-10T06:29:30.214Z,3.50
2019-02-10T06:31:58.846Z,4.03
2019-02-10T06:34:27.454Z,3.70
2019-02-10T06:36:56.340Z,4.10
2019-02-10T06:39:24.964Z,3.37
2019-02-10T06:41:53.557Z,2.93
2019-02-10T06:44:22.190Z,3.70
2019-02-10T06:46:50.792Z,3.50
2019-02-10T06:49:19.411Z,2.70
2019-02-10T06:51:48.076Z,3.93
2019-02-10T06:54:16.686Z,3.63
2019-02-10T06:56:45.622Z,2.77
2019-02-10T06:59:26.144Z,3.33
2019-02-10T07:01:59.365Z,2.63
2019-02-10T07:04:30.127Z,3.50
2019-02-10T07:06:58.943Z,3.07
2019-02-10T07:09:27.573Z,2.97
2019-02-10T07:11:56.191Z,2.97
2019-02-10T07:14:36.657Z,2.97
2019-02-10T07:17:24.849Z,2.70
2019-02-10T07:20:39.942Z,2.90
2019-02-10T07:23:35.040Z,2.40
2019-02-10T07:26:36.375Z,2.87
2019-02-10T07:29:42.116Z,2.90
2019-02-10T07:32:27.847Z,2.97
2019-02-10T07:35:22.479Z,2.73
2019-02-10T07:37:55.831Z,3.17
2019-02-10T07:41:17.852Z,3.13
2019-02-10T07:44:20.566Z,2.93
2019-02-10T07:47:07.525Z,3.40
2019-02-10T07:50:04.279Z,3.33
2019-02-10T07:52:54.806Z,2.10
2019-02-10T07:55:38.063Z,2.43
2019-02-10T07:59:18.738Z,2.87
2019-02-10T08:02:13.632Z,1.90
2019-02-10T08:05:01.374Z,2.30
2019-02-10T08:08:26.661Z,2.40
2019-02-10T08:11:21.765Z,2.07
2019-02-10T08:14:09.287Z,2.20
2019-02-10T08:17:14.876Z,2.50
2019-02-10T08:20:12.134Z,2.03
2019-02-10T08:23:08.519Z,2.47
2019-02-10T08:26:36.381Z,2.00
2019-02-10T08:30:04.356Z,2.70
2019-02-10T08:32:40.126Z,2.50
2019-02-10T08:35:56.018Z,3.10
2019-02-10T08:38:59.107Z,2.40
2019-02-10T08:41:51.195Z,2.97
2019-02-10T08:44:53.410Z,2.77
2019-02-10T08:47:59.390Z,2.50
2019-02-10T08:50:58.373Z,2.40
2019-02-10T08:53:30.832Z,2.67
2019-02-10T08:55:59.981Z,2.43
2019-02-10T08:58:28.591Z,2.30
2019-02-10T09:00:57.456Z,2.40
2019-02-10T09:03:26.075Z,2.50
2019-02-10T09:05:55.020Z,2.60
2019-02-10T09:08:23.623Z,2.70
2019-02-10T09:10:52.224Z,2.60
2019-02-10T09:13:20.860Z,2.30
2019-02-10T09:15:49.486Z,3.50
2019-02-10T09:18:18.340Z,3.53
2019-02-10T09:20:46.939Z,3.60
2019-02-10T09:23:15.682Z,3.00
2019-02-10T09:25:44.295Z,3.73
2019-02-10T09:28:12.939Z,3.70
2019-02-10T09:30:41.551Z,3.07
2019-02-10T09:33:10.222Z,3.70
2019-02-10T09:35:38.834Z,4.10
2019-02-10T09:38:07.545Z,3.40
2019-02-10T09:40:36.161Z,3.23
2019-02-10T09:43:04.824Z,3.23
2019-02-10T09:45:33.524Z,3.00
2019-02-10T09:48:02.523Z,2.83
2019-02-10T09:50:31.138Z,3.80
2019-02-10T09:52:59.788Z,3.40
2019-02-10T09:55:28.394Z,3.40
2019-02-10T09:57:57.062Z,3.33
2019-02-10T10:00:25.672Z,2.63
2019-02-10T10:02:54.331Z,2.30
2019-02-10T10:05:22.937Z,3.23
2019-02-10T10:07:51.577Z,2.37
2019-02-10T10:10:20.440Z,2.33
2019-02-10T10:12:49.086Z,1.60
2019-02-10T10:15:17.709Z,2.23
2019-02-10T10:17:46.370Z,1.80
2019-02-10T10:20:16.233Z,2.40
2019-02-10T10:22:44.926Z,2.50
2019-02-10T10:25:13.627Z,2.30
2019-02-10T10:27:42.275Z,2.50
2019-02-10T10:30:13.583Z,2.00
2019-02-10T10:32:42.229Z,2.27
2019-02-10T10:35:11.139Z,1.60
2019-02-10T10:37:39.823Z,1.63
2019-02-10T10:40:08.740Z,2.20
2019-02-10T10:42:37.410Z,2.77
2019-02-10T10:45:06.487Z,2.17
2019-02-10T10:47:35.136Z,2.00
2019-02-10T10:50:04.103Z,1.70
2019-02-10T10:52:32.731Z,1.70
2019-02-10T10:55:01.377Z,1.77
2019-02-10T10:57:29.966Z,2.10
2019-02-10T10:59:58.919Z,2.20
2019-02-10T11:02:27.581Z,1.90
2019-02-10T11:04:56.243Z,1.90
2019-02-10T11:07:24.903Z,1.70
2019-02-10T11:09:53.852Z,2.10
2019-02-10T11:12:22.993Z,1.90
2019-02-10T11:14:51.658Z,1.77
2019-02-10T11:17:20.304Z,1.80
2019-02-10T11:19:49.200Z,1.80
2019-02-10T11:22:17.823Z,3.20
2019-02-10T11:24:46.479Z,1.40
2019-02-10T11:27:15.079Z,1.70
2019-02-10T11:29:43.783Z,1.70
2019-02-10T11:32:12.378Z,2.07
2019-02-10T11:34:46.083Z,1.90
2019-02-10T11:37:11.373Z,1.50
2019-02-10T11:39:43.790Z,2.20
2019-02-10T11:42:10.497Z,2.20
2019-02-10T11:44:39.148Z,1.73
2019-02-10T11:47:07.758Z,1.43
2019-02-10T11:49:36.405Z,1.63
2019-02-10T11:52:05.126Z,1.80
2019-02-10T11:54:33.746Z,2.10
2019-02-10T11:57:02.344Z,1.90
2019-02-10T11:59:30.992Z,1.90
2019-02-10T12:01:59.592Z,1.97
2019-02-10T12:04:28.249Z,1.67
2019-02-10T12:06:56.862Z,2.03
2019-02-10T12:09:25.499Z,2.07
2019-02-10T12:11:54.100Z,2.03
2019-02-10T12:14:22.911Z,1.13
2019-02-10T12:16:51.511Z,1.60
2019-02-10T12:19:20.182Z,2.50
2019-02-10T12:21:48.795Z,1.87
2019-02-10T12:24:17.479Z,1.70
2019-02-10T12:26:46.104Z,1.10
2019-02-10T12:29:14.783Z,1.80
2019-02-10T12:31:43.399Z,1.70
2019-02-10T12:34:12.328Z,1.60
2019-02-10T12:36:40.974Z,1.60
2019-02-10T12:39:09.616Z,1.30
2019-02-10T12:41:38.248Z,1.60
2019-02-10T12:44:07.003Z,2.07
2019-02-10T12:46:36.224Z,2.03
2019-02-10T12:49:05.577Z,1.70
2019-02-10T12:51:34.774Z,1.33
2019-02-10T12:54:04.807Z,1.60
2019-02-10T12:56:33.439Z,1.70
2019-02-10T12:59:02.763Z,1.90
2019-02-10T13:01:31.888Z,1.70
2019-02-10T13:04:00.523Z,1.60
2019-02-10T13:06:29.125Z,1.60
2019-02-10T13:08:57.802Z,2.27
2019-02-10T13:11:26.402Z,2.30
2019-02-10T13:13:55.015Z,1.90
2019-02-10T13:16:23.697Z,1.80
2019-02-10T13:18:52.312Z,2.00
2019-02-10T13:21:21.283Z,1.40
2019-02-10T13:23:49.903Z,1.60
2019-02-10T13:26:18.589Z,1.30
2019-02-10T13:28:47.503Z,1.27
2019-02-10T13:31:16.132Z,1.70
2019-02-10T13:33:44.775Z,1.67
2019-02-10T13:36:13.486Z,1.43
2019-02-10T13:38:42.130Z,1.43
2019-02-10T13:41:10.825Z,1.80
2019-02-10T13:43:39.429Z,1.40
2019-02-10T13:46:08.419Z,1.40
2019-02-10T13:48:37.027Z,1.30
2019-02-10T13:51:05.668Z,1.57
2019-02-10T13:53:34.280Z,1.57
2019-02-10T13:56:03.404Z,1.50
2019-02-10T13:58:32.050Z,1.97
2019-02-10T14:01:00.706Z,1.60
2019-02-10T14:03:29.324Z,1.40
2019-02-10T14:05:57.976Z,1.50
2019-02-10T14:08:26.767Z,1.50
2019-02-10T14:10:55.417Z,1.60
2019-02-10T14:13:24.021Z,1.33
2019-02-10T14:15:52.696Z,1.37
2019-02-10T14:18:21.699Z,1.87
2019-02-10T14:20:50.344Z,1.43
2019-02-10T14:23:19.011Z,1.77
2019-02-10T14:25:47.672Z,1.57
2019-02-10T14:28:16.273Z,1.60
2019-02-10T14:30:45.553Z,1.50
2019-02-10T14:33:14.150Z,1.60
2019-02-10T14:35:42.903Z,1.83
2019-02-10T14:38:11.532Z,1.40
2019-02-10T14:40:40.208Z,1.60
2019-02-10T14:43:08.808Z,1.20
2019-02-10T14:45:37.474Z,1.77
2019-02-10T14:48:06.080Z,1.30
2019-02-10T14:50:35.028Z,1.90
2019-02-10T14:53:22.919Z,1.70
2019-02-10T14:56:11.087Z,1.70
2019-02-10T14:58:58.979Z,1.70
2019-02-10T15:01:46.900Z,1.80
2019-02-10T15:04:34.783Z,1.60
2019-02-10T15:07:25.177Z,1.20
2019-02-10T15:10:12.823Z,1.80
2019-02-10T15:13:00.698Z,1.20
2019-02-10T15:15:49.695Z,1.50
2019-02-10T15:18:38.251Z,1.30
2019-02-10T15:21:26.199Z,1.67
2019-02-10T15:24:14.084Z,1.50
2019-02-10T15:27:02.097Z,1.53
2019-02-10T15:29:50.073Z,1.50
2019-02-10T15:32:38.000Z,1.27
2019-02-10T15:35:18.918Z,2.03
2019-02-10T15:37:59.551Z,1.70
2019-02-10T15:40:40.759Z,2.00
2019-02-10T15:43:21.648Z,2.13
2019-02-10T15:46:02.375Z,2.20
2019-02-10T15:48:43.007Z,2.00
2019-02-10T15:51:35.622Z,2.57
2019-02-10T15:54:06.485Z,2.40
2019-02-10T15:56:47.440Z,3.00
2019-02-10T15:59:28.579Z,3.10
2019-02-10T16:02:09.377Z,3.27
2019-02-10T16:04:49.768Z,3.40
2019-02-10T16:07:30.590Z,3.90
2019-02-10T16:10:10.956Z,4.00
2019-02-10T16:12:51.432Z,4.47
2019-02-10T16:15:31.832Z,4.20
2019-02-10T16:18:12.404Z,4.20
2019-02-10T16:20:52.824Z,4.30
2019-02-10T16:23:33.204Z,4.20
2019-02-10T16:26:13.824Z,4.60
2019-02-10T16:28:54.268Z,4.53
2019-02-10T16:31:34.746Z,4.50
2019-02-10T16:36:58.239Z,4.53
2019-02-10T16:39:38.998Z,4.00
2019-02-10T16:42:19.521Z,4.27
2019-02-10T16:45:00.006Z,4.30
2019-02-10T16:47:40.664Z,4.27
2019-02-10T16:50:21.067Z,4.87
2019-02-10T16:53:01.720Z,4.20
2019-02-10T16:55:42.387Z,3.47
2019-02-10T16:58:23.250Z,3.40
2019-02-10T17:01:04.412Z,2.93
2019-02-10T17:03:45.232Z,3.90
2019-02-10T17:06:26.515Z,3.50
2019-02-10T17:11:50.211Z,3.63
2019-02-10T17:14:30.976Z,4.07
2019-02-10T17:17:11.531Z,4.03
2019-02-10T17:19:52.376Z,3.53
2019-02-10T17:22:32.860Z,4.77
2019-02-10T17:25:14.015Z,4.67
2019-02-10T17:27:54.839Z,4.23
2019-02-10T17:30:35.615Z,4.83
2019-02-10T17:33:16.191Z,4.20
2019-02-10T17:35:57.360Z,4.87
2019-02-10T17:38:38.021Z,4.50
2019-02-10T17:41:22.938Z,5.00
2019-02-10T17:46:31.784Z,5.20
2019-02-10T17:49:19.678Z,4.80
2019-02-10T17:52:07.612Z,5.37
2019-02-10T17:54:55.508Z,5.20
2019-02-10T17:57:43.442Z,5.20
2019-02-10T18:03:43.857Z,5.60
2019-02-10T18:06:31.825Z,5.57
2019-02-10T18:09:19.711Z,6.40
2019-02-10T18:12:07.639Z,6.40
2019-02-10T18:15:14.702Z,8.77
2019-02-10T18:18:14.460Z,9.50
2019-02-10T18:21:13.805Z,9.23
2019-02-10T18:24:16.461Z,8.13
2019-02-10T18:27:04.456Z,8.07
2019-02-10T18:30:04.416Z,7.77
2019-02-10T18:33:03.896Z,6.73
2019-02-10T18:35:59.388Z,6.43
2019-02-10T18:39:06.762Z,6.60
2019-02-10T18:42:20.845Z,6.37
2019-02-10T18:45:23.024Z,6.00
2019-02-10T18:48:30.377Z,6.13
2019-02-10T18:51:25.697Z,7.23
2019-02-10T18:54:32.785Z,7.97
2019-02-10T18:57:40.087Z,7.60
2019-02-10T19:00:47.261Z,7.60
2019-02-10T19:03:54.338Z,6.93
2019-02-10T19:07:01.412Z,6.00
2019-02-10T19:10:08.425Z,5.80
2019-02-10T19:13:15.480Z,5.10
2019-02-10T19:16:22.485Z,5.10
2019-02-10T19:19:03.664Z,3.67
2019-02-10T19:21:55.789Z,3.63
2019-02-10T19:24:36.588Z,3.40
2019-02-10T19:27:39.677Z,3.53
2019-02-10T19:33:37.781Z,4.20
2019-02-10T19:36:37.959Z,4.40
2019-02-10T19:39:31.389Z,5.77
2019-02-10T19:42:23.520Z,4.70
2019-02-10T19:45:29.151Z,4.23
2019-02-10T19:48:31.328Z,3.60
2019-02-10T19:51:31.272Z,2.63
2019-02-10T19:54:21.563Z,2.70
2019-02-10T19:57:21.306Z,3.00
2019-02-10T20:00:12.732Z,2.70
2019-02-10T20:03:01.131Z,2.73
2019-02-10T20:05:49.137Z,2.10
2019-02-10T20:08:56.190Z,2.30
2019-02-10T20:12:04.374Z,2.30
2019-02-10T20:15:11.994Z,2.50
2019-02-10T20:18:11.850Z,2.13
2019-02-10T20:21:17.447Z,2.10
2019-02-10T20:24:20.441Z,2.40
2019-02-10T20:30:03.258Z,2.30
2019-02-10T20:33:06.131Z,2.63
2019-02-10T20:36:06.177Z,2.83
2019-02-10T20:38:46.611Z,2.03
2019-02-10T20:41:36.981Z,2.30
2019-02-10T20:44:24.928Z,2.40
2019-02-10T20:47:31.986Z,2.60
2019-02-10T20:50:39.041Z,2.80
2019-02-10T20:53:46.140Z,1.90
2019-02-10T20:56:53.225Z,2.17
2019-02-10T21:00:00.383Z,2.10
2019-02-10T21:03:07.506Z,1.97
2019-02-10T21:06:14.541Z,2.10
2019-02-10T21:09:02.376Z,2.10
2019-02-10T21:12:00.117Z,1.90
2019-02-10T21:15:07.194Z,1.80
2019-02-10T21:18:14.380Z,1.80
2019-02-10T21:21:21.375Z,1.73
2019-02-10T21:24:28.446Z,1.90
2019-02-10T21:27:35.514Z,1.80
2019-02-10T21:30:42.536Z,1.90
2019-02-10T21:33:49.589Z,1.80
2019-02-10T21:36:52.268Z,1.70
2019-02-10T21:39:49.295Z,1.67
2019-02-10T21:42:56.424Z,2.07
2019-02-10T21:46:03.429Z,1.80
2019-02-10T21:48:56.322Z,2.10
2019-02-10T21:51:44.222Z,2.20
2019-02-10T21:54:32.248Z,2.30
2019-02-10T21:57:20.181Z,2.43
2019-02-10T22:00:28.276Z,2.80
2019-02-10T22:03:16.432Z,2.63
2019-02-10T22:06:04.348Z,2.90
2019-02-10T22:08:52.301Z,3.50
2019-02-10T22:11:40.234Z,2.77
2019-02-10T22:14:28.203Z,2.90
2019-02-10T22:17:15.812Z,3.13
2019-02-10T22:22:55.602Z,2.70
2019-02-10T22:25:36.851Z,3.00
2019-02-10T22:28:17.612Z,4.00
2019-02-10T22:30:58.482Z,3.70
2019-02-10T22:33:39.207Z,3.90
2019-02-10T22:36:20.160Z,4.33
2019-02-10T22:39:00.803Z,3.90
2019-02-10T22:41:41.340Z,4.37
2019-02-10T22:44:22.039Z,5.00
2019-02-10T22:47:02.406Z,5.23
2019-02-10T22:49:43.531Z,4.70
2019-02-10T22:52:23.988Z,5.10
2019-02-10T22:55:04.710Z,5.63
2019-02-10T22:57:45.883Z,6.30
2019-02-10T23:03:33.089Z,6.90
2019-02-10T23:06:14.148Z,7.17
2019-02-10T23:08:54.935Z,7.40
2019-02-10T23:11:35.474Z,8.27
2019-02-10T23:14:16.135Z,8.63
2019-02-10T23:16:56.401Z,8.90
2019-02-10T23:19:37.078Z,8.70
2019-02-10T23:22:17.656Z,9.20
2019-02-10T23:24:58.068Z,8.80
2019-02-10T23:27:38.452Z,8.67
2019-02-10T23:30:19.261Z,9.30
2019-02-10T23:32:59.996Z,9.40
2019-02-10T23:35:40.374Z,9.40
2019-02-10T23:38:20.951Z,9.00
2019-02-10T23:41:01.600Z,9.60
2019-02-10T23:43:41.901Z,9.10
2019-02-10T23:46:22.560Z,9.00
2019-02-10T23:49:03.204Z,8.83
2019-02-10T23:51:44.389Z,8.60
2019-02-10T23:54:24.861Z,9.57
2019-02-10T23:59:47.548Z,8.30
